Time;durP1;ratioP1;P1;durP2;ratioP2;P2;SDS_P1;SDS_P2;PMS_P1;PMS_P2;Temp;Humidity;BMP_temperature;BMP_pressure;BME280_temperature;BME280_humidity;BME280_pressure;Samples;Min_cycle;Max_cycle;Signal;HPM_P1;HPM_P2
2023/07/19 00:01:48;;;;;;;;;;;25.80;51.00;;;;;;1547018;74;734;-53
2023/07/19 00:03:50;;;;;;;;;;;25.80;51.10;;;;;;1560896;75;782;-51
2023/07/19 00:05:53;;;;;;;;;;;25.90;51.10;;;;;;1566212;75;1122;-53
2023/07/19 00:07:55;;;;;;;;;;;25.80;51.20;;;;;;1561993;76;766;-53
2023/07/19 00:09:57;;;;;;;;;;;25.90;51.30;;;;;;1549472;75;1173;-53
2023/07/19 00:11:59;;;;;;;;;;;25.90;51.40;;;;;;1545999;74;776;-52
2023/07/19 00:14:05;;;;;;;;;;;25.90;51.60;;;;;;1551977;74;1453;-54
2023/07/19 00:16:04;;;;;;;;;;;25.80;51.70;;;;;;1549997;76;1928;-53
2023/07/19 00:18:06;;;;;;;;;;;25.90;51.90;;;;;;1551070;76;737;-52
2023/07/19 00:20:08;;;;;;;;;;;25.90;52.00;;;;;;1558052;76;1147;-53
2023/07/19 00:22:10;;;;;;;;;;;25.90;52.10;;;;;;1563442;76;716;-52
2023/07/19 00:24:12;;;;;;;;;;;25.80;52.30;;;;;;1566230;76;825;-53
2023/07/19 00:26:14;;;;;;;;;;;25.90;52.40;;;;;;1558854;74;796;-54
2023/07/19 00:28:16;;;;;;;;;;;25.80;52.60;;;;;;1559951;74;1692;-53
2023/07/19 00:30:18;;;;;;;;;;;25.80;52.60;;;;;;1567353;76;1113;-52
2023/07/19 00:32:20;;;;;;;;;;;25.80;52.70;;;;;;1547245;75;710;-53
2023/07/19 00:34:22;;;;;;;;;;;25.80;52.80;;;;;;1541785;75;686;-54
2023/07/19 00:36:23;;;;;;;;;;;25.80;52.90;;;;;;1548486;76;1944;-52
2023/07/19 00:38:25;;;;;;;;;;;25.80;53.00;;;;;;1546142;76;720;-54
2023/07/19 00:40:27;;;;;;;;;;;25.90;53.10;;;;;;1546803;76;1126;-53
2023/07/19 00:42:30;;;;;;;;;;;25.80;53.00;;;;;;1560331;75;1418;-53
2023/07/19 00:44:32;;;;;;;;;;;25.80;53.00;;;;;;1546732;76;751;-54
2023/07/19 00:46:34;;;;;;;;;;;25.90;52.90;;;;;;1561008;76;749;-53
2023/07/19 00:48:36;;;;;;;;;;;25.90;52.80;;;;;;1552199;74;1178;-53
2023/07/19 00:50:38;;;;;;;;;;;25.80;52.90;;;;;;1557493;74;751;-53
2023/07/19 00:52:40;;;;;;;;;;;25.90;52.90;;;;;;1552995;74;708;-51
2023/07/19 00:54:42;;;;;;;;;;;25.90;52.80;;;;;;1548321;76;1928;-53
2023/07/19 00:56:44;;;;;;;;;;;25.90;52.80;;;;;;1561404;75;1604;-54
2023/07/19 00:58:46;;;;;;;;;;;25.90;52.80;;;;;;1557107;76;1112;-54
2023/07/19 01:00:47;;;;;;;;;;;25.80;52.90;;;;;;1556294;76;810;-52
2023/07/19 01:02:49;;;;;;;;;;;25.80;52.90;;;;;;1550002;74;702;-54
2023/07/19 01:04:51;;;;;;;;;;;25.80;53.30;;;;;;1555161;74;701;-53
2023/07/19 01:06:53;;;;;;;;;;;25.80;53.10;;;;;;1544280;76;690;-53
2023/07/19 01:08:55;;;;;;;;;;;25.80;53.30;;;;;;1539907;76;1203;-53
2023/07/19 01:10:57;;;;;;;;;;;25.80;53.00;;;;;;1526248;76;1701;-52
2023/07/19 01:13:03;;;;;;;;;;;25.80;53.20;;;;;;1535313;75;714;-52
2023/07/19 01:15:08;;;;;;;;;;;25.80;53.20;;;;;;1537794;75;1929;-53
2023/07/19 01:17:09;;;;;;;;;;;25.80;53.20;;;;;;1530026;76;1015;-51
2023/07/19 01:19:11;;;;;;;;;;;25.80;53.40;;;;;;1532861;76;1147;-53
2023/07/19 01:21:13;;;;;;;;;;;25.80;53.50;;;;;;1540160;75;766;-52
2023/07/19 01:23:15;;;;;;;;;;;25.70;53.70;;;;;;1545150;75;748;-51
2023/07/19 01:25:17;;;;;;;;;;;25.70;53.90;;;;;;1542749;75;1686;-53
2023/07/19 01:27:19;;;;;;;;;;;25.70;53.80;;;;;;1540630;76;721;-51
2023/07/19 01:29:21;;;;;;;;;;;25.70;53.60;;;;;;1533097;75;1139;-53
2023/07/19 01:31:23;;;;;;;;;;;25.70;54.00;;;;;;1540449;75;757;-53
2023/07/19 01:33:25;;;;;;;;;;;25.70;53.70;;;;;;1537885;75;780;-53
2023/07/19 01:35:26;;;;;;;;;;;25.70;53.70;;;;;;1538413;76;1947;-53
2023/07/19 01:37:28;;;;;;;;;;;25.70;53.80;;;;;;1535674;75;1401;-52
2023/07/19 01:39:30;;;;;;;;;;;25.80;53.80;;;;;;1542041;75;1139;-52
2023/07/19 01:41:32;;;;;;;;;;;25.80;53.90;;;;;;1547834;75;702;-53
2023/07/19 01:43:34;;;;;;;;;;;25.70;53.90;;;;;;1540202;75;744;-53
2023/07/19 01:45:36;;;;;;;;;;;25.80;53.90;;;;;;1548578;75;780;-54
2023/07/19 01:47:38;;;;;;;;;;;25.70;53.90;;;;;;1540406;76;614;-52
2023/07/19 01:49:40;;;;;;;;;;;25.70;53.80;;;;;;1547877;76;1162;-52
2023/07/19 01:51:42;;;;;;;;;;;25.80;53.80;;;;;;1535250;75;1455;-52
2023/07/19 01:53:44;;;;;;;;;;;25.70;53.90;;;;;;1533238;76;711;-52
2023/07/19 01:55:46;;;;;;;;;;;25.80;53.90;;;;;;1548375;75;1945;-53
2023/07/19 01:57:48;;;;;;;;;;;25.70;54.00;;;;;;1541171;75;728;-54
2023/07/19 01:59:50;;;;;;;;;;;25.70;53.90;;;;;;1540689;76;1138;-51
2023/07/19 02:01:53;;;;;;;;;;;25.70;53.80;;;;;;1526843;75;806;-51
2023/07/19 02:03:55;;;;;;;;;;;25.70;53.60;;;;;;1530183;76;785;-52
2023/07/19 02:05:58;;;;;;;;;;;25.70;53.90;;;;;;1541281;75;1587;-52
2023/07/19 02:08:01;;;;;;;;;;;25.80;54.00;;;;;;1543902;76;1021;-53
2023/07/19 02:10:03;;;;;;;;;;;25.70;54.00;;;;;;1536193;76;1203;-52
2023/07/19 02:12:05;;;;;;;;;;;25.80;54.00;;;;;;1534342;76;776;-52
2023/07/19 02:14:07;;;;;;;;;;;25.70;54.50;;;;;;1546109;76;880;-51
2023/07/19 02:16:09;;;;;;;;;;;25.70;54.60;;;;;;1532322;76;1912;-51
2023/07/19 02:18:11;;;;;;;;;;;25.70;54.70;;;;;;1537331;76;718;-54
2023/07/19 02:20:14;;;;;;;;;;;25.60;55.10;;;;;;1527720;76;1542;-53
2023/07/19 02:22:16;;;;;;;;;;;25.60;55.20;;;;;;1530740;76;733;-54
2023/07/19 02:24:17;;;;;;;;;;;25.60;54.80;;;;;;1532664;76;727;-54
2023/07/19 02:26:19;;;;;;;;;;;25.60;54.70;;;;;;1538111;76;733;-53
2023/07/19 02:28:24;;;;;;;;;;;25.60;54.60;;;;;;1537098;76;732;-53
2023/07/19 02:30:26;;;;;;;;;;;25.60;54.60;;;;;;1545082;76;1108;-54
2023/07/19 02:32:27;;;;;;;;;;;25.70;54.50;;;;;;1526883;76;786;-54
2023/07/19 02:34:29;;;;;;;;;;;25.70;54.50;;;;;;1526104;76;1548;-52
2023/07/19 02:36:31;;;;;;;;;;;25.60;54.40;;;;;;1539571;76;1912;-53
2023/07/19 02:38:33;;;;;;;;;;;25.70;54.30;;;;;;1530492;76;1110;-52
2023/07/19 02:40:35;;;;;;;;;;;25.70;54.30;;;;;;1539656;76;786;-52
2023/07/19 02:42:37;;;;;;;;;;;25.70;54.30;;;;;;1546455;76;723;-53
2023/07/19 02:44:39;;;;;;;;;;;25.60;54.30;;;;;;1536438;76;732;-53
2023/07/19 02:46:41;;;;;;;;;;;25.70;54.30;;;;;;1534444;76;774;-53
2023/07/19 02:48:43;;;;;;;;;;;25.70;54.30;;;;;;1535870;76;1568;-53
2023/07/19 02:50:45;;;;;;;;;;;25.60;54.40;;;;;;1546219;76;778;-53
2023/07/19 02:52:47;;;;;;;;;;;25.70;54.30;;;;;;1541566;76;698;-53
2023/07/19 02:54:49;;;;;;;;;;;25.60;54.30;;;;;;1533576;76;602;-53
2023/07/19 02:56:51;;;;;;;;;;;25.70;54.20;;;;;;1534794;76;1944;-54
2023/07/19 02:58:53;;;;;;;;;;;25.70;54.20;;;;;;1539777;76;1125;-52
2023/07/19 03:00:55;;;;;;;;;;;25.60;54.20;;;;;;1531853;76;803;-54
2023/07/19 03:02:57;;;;;;;;;;;25.60;53.90;;;;;;1523931;76;1583;-53
2023/07/19 03:04:58;;;;;;;;;;;25.60;53.90;;;;;;1536375;76;747;-54
2023/07/19 03:07:00;;;;;;;;;;;25.60;53.90;;;;;;1545919;75;1064;-53
2023/07/19 03:09:03;;;;;;;;;;;25.60;53.80;;;;;;1566886;75;1193;-53
2023/07/19 03:11:09;;;;;;;;;;;25.60;53.90;;;;;;1555041;75;608;-52
2023/07/19 03:13:09;;;;;;;;;;;25.50;54.20;;;;;;1559160;75;1209;-53
2023/07/19 03:15:11;;;;;;;;;;;25.60;54.20;;;;;;1557765;74;751;-53
2023/07/19 03:17:13;;;;;;;;;;;25.50;54.10;;;;;;1542597;75;1932;-53
2023/07/19 03:19:15;;;;;;;;;;;25.50;53.90;;;;;;1548773;75;1168;-53
2023/07/19 03:21:18;;;;;;;;;;;25.50;54.10;;;;;;1543761;75;764;-52
2023/07/19 03:23:20;;;;;;;;;;;25.60;53.90;;;;;;1552398;75;714;-54
2023/07/19 03:25:22;;;;;;;;;;;25.60;53.90;;;;;;1554170;75;750;-52
2023/07/19 03:27:24;;;;;;;;;;;25.50;53.90;;;;;;1555878;75;811;-52
2023/07/19 03:29:26;;;;;;;;;;;25.60;53.90;;;;;;1550224;74;1144;-53
2023/07/19 03:31:28;;;;;;;;;;;25.60;53.90;;;;;;1542289;75;1505;-54
2023/07/19 03:33:30;;;;;;;;;;;25.50;53.80;;;;;;1557974;75;680;-53
2023/07/19 03:35:32;;;;;;;;;;;25.50;53.70;;;;;;1555051;75;733;-53
2023/07/19 03:37:37;;;;;;;;;;;25.60;53.60;;;;;;1554784;75;1935;-52
2023/07/19 03:39:39;;;;;;;;;;;25.50;53.60;;;;;;1554576;76;1180;-53
2023/07/19 03:41:40;;;;;;;;;;;25.50;53.50;;;;;;1562184;74;691;-53
2023/07/19 03:43:42;;;;;;;;;;;25.50;53.50;;;;;;1554430;75;784;-51
2023/07/19 03:45:44;;;;;;;;;;;25.50;53.50;;;;;;1556330;75;1304;-52
2023/07/19 03:47:46;;;;;;;;;;;25.50;53.50;;;;;;1559685;75;790;-53
2023/07/19 03:49:48;;;;;;;;;;;25.50;53.50;;;;;;1550430;75;1217;-54
2023/07/19 03:51:50;;;;;;;;;;;25.50;53.40;;;;;;1544441;75;867;-54
2023/07/19 03:53:52;;;;;;;;;;;25.50;53.40;;;;;;1553211;75;734;-54
2023/07/19 03:55:57;;;;;;;;;;;25.50;53.40;;;;;;1561228;75;1926;-53
2023/07/19 03:57:59;;;;;;;;;;;25.50;53.40;;;;;;1540843;75;955;-53
2023/07/19 04:00:01;;;;;;;;;;;25.50;53.30;;;;;;1541831;75;1084;-53
2023/07/19 04:02:03;;;;;;;;;;;25.50;53.30;;;;;;1546520;75;754;-53
2023/07/19 04:04:05;;;;;;;;;;;25.50;53.30;;;;;;1538326;75;713;-53
2023/07/19 04:06:06;;;;;;;;;;;25.50;53.40;;;;;;1573058;75;842;-53
2023/07/19 04:08:08;;;;;;;;;;;25.50;53.40;;;;;;1554446;75;1143;-52
2023/07/19 04:10:10;;;;;;;;;;;25.50;53.40;;;;;;1543035;75;1170;-52
2023/07/19 04:12:12;;;;;;;;;;;25.50;53.40;;;;;;1549039;75;1534;-51
2023/07/19 04:14:14;;;;;;;;;;;25.40;53.40;;;;;;1548986;75;745;-53
2023/07/19 04:16:16;;;;;;;;;;;25.50;53.50;;;;;;1552741;75;1929;-53
2023/07/19 04:18:18;;;;;;;;;;;25.50;53.40;;;;;;1552288;75;887;-53
2023/07/19 04:20:19;;;;;;;;;;;25.40;53.40;;;;;;1548599;75;1110;-53
2023/07/19 04:22:21;;;;;;;;;;;25.50;53.40;;;;;;1563867;75;717;-52
2023/07/19 04:24:23;;;;;;;;;;;25.50;53.70;;;;;;1555445;75;742;-53
2023/07/19 04:26:25;;;;;;;;;;;25.50;53.50;;;;;;1558455;75;1548;-52
2023/07/19 04:28:27;;;;;;;;;;;25.50;53.60;;;;;;1543842;74;824;-53
2023/07/19 04:30:29;;;;;;;;;;;25.50;53.50;;;;;;1541368;74;1160;-52
2023/07/19 04:32:31;;;;;;;;;;;25.40;53.60;;;;;;1555973;75;703;-53
2023/07/19 04:34:33;;;;;;;;;;;25.50;53.60;;;;;;1548368;75;663;-52
2023/07/19 04:36:34;;;;;;;;;;;25.50;53.60;;;;;;1553284;75;1954;-52
2023/07/19 04:38:36;;;;;;;;;;;25.50;53.60;;;;;;1553578;75;1098;-51
2023/07/19 04:40:38;;;;;;;;;;;25.50;53.70;;;;;;1549634;75;1437;-54
2023/07/19 04:42:40;;;;;;;;;;;25.50;53.70;;;;;;1552480;75;684;-52
2023/07/19 04:44:42;;;;;;;;;;;25.50;53.70;;;;;;1563365;75;707;-53
2023/07/19 04:46:44;;;;;;;;;;;25.50;53.70;;;;;;1550151;75;761;-53
2023/07/19 04:48:46;;;;;;;;;;;25.50;53.70;;;;;;1570219;74;1122;-52
2023/07/19 04:50:49;;;;;;;;;;;25.40;53.80;;;;;;1546055;75;810;-53
2023/07/19 04:52:52;;;;;;;;;;;25.50;53.90;;;;;;1556974;75;1986;-55
2023/07/19 04:54:54;;;;;;;;;;;25.50;54.00;;;;;;1540602;75;1569;-55
2023/07/19 04:56:56;;;;;;;;;;;25.40;53.90;;;;;;1551725;75;1945;-55
2023/07/19 04:58:57;;;;;;;;;;;25.50;53.80;;;;;;1559497;75;1141;-54
2023/07/19 05:01:05;;;;;;;;;;;25.40;53.70;;;;;;1555710;75;688;-53
2023/07/19 05:03:06;;;;;;;;;;;25.50;53.70;;;;;;1542950;75;740;-55
2023/07/19 05:05:09;;;;;;;;;;;25.40;53.60;;;;;;1545359;75;861;-55
2023/07/19 05:07:11;;;;;;;;;;;25.40;53.50;;;;;;1551063;75;725;-55
2023/07/19 05:09:13;;;;;;;;;;;25.40;53.40;;;;;;1540556;75;1486;-54
2023/07/19 05:11:19;;;;;;;;;;;25.50;53.30;;;;;;1539462;76;862;-55
2023/07/19 05:13:18;;;;;;;;;;;25.50;53.20;;;;;;1543021;76;1615;-54
2023/07/19 05:15:20;;;;;;;;;;;25.50;53.10;;;;;;1537497;76;777;-54
2023/07/19 05:17:22;;;;;;;;;;;25.50;53.10;;;;;;1537284;76;1947;-52
2023/07/19 05:19:24;;;;;;;;;;;25.50;53.00;;;;;;1536964;76;1138;-53
2023/07/19 05:21:26;;;;;;;;;;;25.50;53.10;;;;;;1541381;76;662;-54
2023/07/19 05:23:28;;;;;;;;;;;25.50;53.00;;;;;;1542646;76;1592;-55
2023/07/19 05:25:30;;;;;;;;;;;25.50;53.00;;;;;;1541947;76;731;-55
2023/07/19 05:27:32;;;;;;;;;;;25.50;52.90;;;;;;1538486;76;721;-55
2023/07/19 05:29:34;;;;;;;;;;;25.50;52.80;;;;;;1540021;75;1146;-55
2023/07/19 05:31:36;;;;;;;;;;;25.50;52.80;;;;;;1539990;76;691;-54
2023/07/19 05:33:38;;;;;;;;;;;25.50;52.80;;;;;;1542780;76;723;-55
2023/07/19 05:35:40;;;;;;;;;;;25.50;52.80;;;;;;1538549;76;721;-54
2023/07/19 05:37:41;;;;;;;;;;;25.60;52.70;;;;;;1537837;76;1919;-54
2023/07/19 05:39:43;;;;;;;;;;;25.60;52.80;;;;;;1551347;76;1130;-55
2023/07/19 05:41:45;;;;;;;;;;;25.60;52.80;;;;;;1542183;75;769;-54
2023/07/19 05:43:48;;;;;;;;;;;25.60;52.60;;;;;;1541697;76;763;-55
2023/07/19 05:45:50;;;;;;;;;;;25.70;52.50;;;;;;1538314;76;728;-53
2023/07/19 05:47:51;;;;;;;;;;;26.20;51.20;;;;;;1539969;76;863;-54
2023/07/19 05:49:53;;;;;;;;;;;26.70;49.50;;;;;;1539920;75;1155;-54
2023/07/19 05:51:55;;;;;;;;;;;26.50;49.90;;;;;;1554542;76;1326;-55
2023/07/19 05:53:57;;;;;;;;;;;26.60;50.20;;;;;;1538989;76;737;-55
2023/07/19 05:55:59;;;;;;;;;;;26.60;49.40;;;;;;1552063;75;1584;-54
2023/07/19 05:58:01;;;;;;;;;;;26.70;49.00;;;;;;1559460;75;1942;-53
2023/07/19 06:00:13;;;;;;;;;;;26.70;48.90;;;;;;1561732;75;1496;-52
2023/07/19 06:02:11;;;;;;;;;;;26.80;49.20;;;;;;1561669;75;1527;-53
2023/07/19 06:04:14;;;;;;;;;;;26.70;49.70;;;;;;1553375;75;1464;-54
2023/07/19 06:06:16;;;;;;;;;;;26.50;50.10;;;;;;1555122;75;1532;-54
2023/07/19 06:08:18;;;;;;;;;;;26.40;50.30;;;;;;1557440;75;1479;-54
2023/07/19 06:10:20;;;;;;;;;;;26.40;50.50;;;;;;1559830;75;1492;-53
2023/07/19 06:12:22;;;;;;;;;;;26.40;50.70;;;;;;1547222;75;1174;-54
2023/07/19 06:14:27;;;;;;;;;;;26.30;51.00;;;;;;1551057;75;1501;-54
2023/07/19 06:16:29;;;;;;;;;;;26.30;51.30;;;;;;1557876;75;1460;-54
2023/07/19 06:18:31;;;;;;;;;;;26.20;51.40;;;;;;1547794;75;1946;-54
2023/07/19 06:20:33;;;;;;;;;;;26.30;51.50;;;;;;1553971;75;1701;-53
2023/07/19 06:22:35;;;;;;;;;;;26.20;51.70;;;;;;1556005;74;1473;-53
2023/07/19 06:24:37;;;;;;;;;;;26.30;51.80;;;;;;1567102;74;1125;-53
2023/07/19 06:26:39;;;;;;;;;;;26.20;51.90;;;;;;1561400;74;1040;-54
2023/07/19 06:28:41;;;;;;;;;;;26.70;51.90;;;;;;1559852;74;1205;-55
2023/07/19 06:30:43;;;;;;;;;;;26.30;52.10;;;;;;1563790;74;1461;-53
2023/07/19 06:32:45;;;;;;;;;;;26.30;52.00;;;;;;1558303;75;1461;-54
2023/07/19 06:34:47;;;;;;;;;;;26.20;52.00;;;;;;1549157;75;1465;-55
2023/07/19 06:36:48;;;;;;;;;;;26.20;52.10;;;;;;1541706;75;1935;-55
2023/07/19 06:38:50;;;;;;;;;;;26.20;52.10;;;;;;1566372;75;1595;-54
2023/07/19 06:40:52;;;;;;;;;;;26.20;52.20;;;;;;1564952;75;1541;-53
2023/07/19 06:42:54;;;;;;;;;;;26.30;52.10;;;;;;1549733;74;1142;-54
2023/07/19 06:44:56;;;;;;;;;;;26.20;51.90;;;;;;1561074;75;1479;-53
2023/07/19 06:47:03;;;;;;;;;;;26.20;51.90;;;;;;1547746;74;1531;-53
2023/07/19 06:49:04;;;;;;;;;;;26.20;52.10;;;;;;1563142;74;1228;-54
2023/07/19 06:51:07;;;;;;;;;;;26.30;52.10;;;;;;1567231;75;1878;-54
2023/07/19 06:53:09;;;;;;;;;;;26.30;52.10;;;;;;1544349;75;1178;-53
2023/07/19 06:55:11;;;;;;;;;;;26.30;52.10;;;;;;1555871;75;1306;-54
2023/07/19 06:57:13;;;;;;;;;;;26.20;51.90;;;;;;1544139;75;1926;-54
2023/07/19 06:59:15;;;;;;;;;;;26.30;52.10;;;;;;1543780;74;1213;-54
2023/07/19 07:01:17;;;;;;;;;;;26.20;51.70;;;;;;1540121;75;1517;-55
2023/07/19 07:03:18;;;;;;;;;;;26.30;51.50;;;;;;1541907;75;1191;-54
2023/07/19 07:05:20;;;;;;;;;;;26.30;51.50;;;;;;1552986;75;1243;-53
2023/07/19 07:07:23;;;;;;;;;;;26.30;51.40;;;;;;1563692;75;1227;-51
2023/07/19 07:09:25;;;;;;;;;;;26.30;51.50;;;;;;1560740;75;1463;-54
2023/07/19 07:11:27;;;;;;;;;;;26.30;51.20;;;;;;1554150;74;1224;-54
2023/07/19 07:13:29;;;;;;;;;;;26.30;51.00;;;;;;1569384;75;1479;-53
2023/07/19 07:15:31;;;;;;;;;;;26.30;51.10;;;;;;1547227;75;1479;-53
2023/07/19 07:17:33;;;;;;;;;;;26.30;50.70;;;;;;1523075;76;1941;-54
2023/07/19 07:19:35;;;;;;;;;;;26.30;50.60;;;;;;1530230;76;1184;-54
2023/07/19 07:21:36;;;;;;;;;;;26.30;50.50;;;;;;1531944;74;1276;-53
2023/07/19 07:23:38;;;;;;;;;;;26.30;50.30;;;;;;1546198;75;1142;-54
2023/07/19 07:25:40;;;;;;;;;;;26.30;50.10;;;;;;1546613;75;1176;-54
2023/07/19 07:27:42;;;;;;;;;;;26.30;49.70;;;;;;1542746;75;1198;-54
2023/07/19 07:29:44;;;;;;;;;;;26.30;49.10;;;;;;1545290;74;1512;-53
2023/07/19 07:31:46;;;;;;;;;;;26.30;48.90;;;;;;1542609;75;1093;-53
2023/07/19 07:33:48;;;;;;;;;;;26.30;48.20;;;;;;1547842;75;1143;-52
2023/07/19 07:35:50;;;;;;;;;;;26.30;48.00;;;;;;1554355;75;1249;-54
2023/07/19 07:37:52;;;;;;;;;;;26.30;47.80;;;;;;1558505;75;1941;-54
2023/07/19 07:39:54;;;;;;;;;;;26.30;47.60;;;;;;1545535;75;1171;-53
2023/07/19 07:41:56;;;;;;;;;;;26.30;47.20;;;;;;1544401;75;1125;-55
2023/07/19 07:43:58;;;;;;;;;;;26.30;47.10;;;;;;1554257;75;1481;-54
2023/07/19 07:46:01;;;;;;;;;;;26.30;46.90;;;;;;1556654;75;1137;-54
2023/07/19 07:48:03;;;;;;;;;;;26.30;46.70;;;;;;1554359;75;1129;-54
2023/07/19 07:50:08;;;;;;;;;;;26.30;46.90;;;;;;1542934;74;1206;-53
2023/07/19 07:52:11;;;;;;;;;;;26.30;46.60;;;;;;1547820;74;1502;-53
2023/07/19 07:54:12;;;;;;;;;;;26.30;46.60;;;;;;1549783;74;1699;-54
2023/07/19 07:56:14;;;;;;;;;;;26.30;46.30;;;;;;1556899;75;1135;-54
2023/07/19 07:58:18;;;;;;;;;;;26.30;46.20;;;;;;1560552;75;1950;-53
2023/07/19 08:00:19;;;;;;;;;;;26.30;46.00;;;;;;1552539;74;1593;-54
2023/07/19 08:02:21;;;;;;;;;;;26.30;45.70;;;;;;1557133;75;1224;-54
2023/07/19 08:04:23;;;;;;;;;;;26.30;45.90;;;;;;1563647;74;1172;-54
2023/07/19 08:06:25;;;;;;;;;;;26.30;45.80;;;;;;1553196;74;1138;-53
2023/07/19 08:08:27;;;;;;;;;;;26.40;45.70;;;;;;1562183;74;1135;-54
2023/07/19 08:10:29;;;;;;;;;;;26.30;45.90;;;;;;1559103;75;1200;-53
2023/07/19 08:12:31;;;;;;;;;;;26.40;45.70;;;;;;1558203;74;1501;-55
2023/07/19 08:14:33;;;;;;;;;;;26.50;45.90;;;;;;1565583;74;1157;-55
2023/07/19 08:16:35;;;;;;;;;;;26.40;45.70;;;;;;1562391;75;1062;-55
2023/07/19 08:18:36;;;;;;;;;;;26.40;45.30;;;;;;1557043;74;1961;-55
2023/07/19 08:20:38;;;;;;;;;;;26.50;45.20;;;;;;1546412;74;1072;-55
2023/07/19 08:22:40;;;;;;;;;;;26.50;45.20;;;;;;1549227;74;1478;-55
2023/07/19 08:24:42;;;;;;;;;;;26.40;45.00;;;;;;1547291;74;1483;-54
2023/07/19 08:26:44;;;;;;;;;;;26.50;44.60;;;;;;1556456;75;1532;-53
2023/07/19 08:28:46;;;;;;;;;;;26.40;44.60;;;;;;1563023;74;1164;-55
2023/07/19 08:30:48;;;;;;;;;;;26.50;44.50;;;;;;1562499;74;1138;-55
2023/07/19 08:32:50;;;;;;;;;;;26.40;44.70;;;;;;1560358;75;1168;-55
2023/07/19 08:34:51;;;;;;;;;;;26.40;45.00;;;;;;1564849;74;1083;-55
2023/07/19 08:36:54;;;;;;;;;;;26.50;44.80;;;;;;1550294;75;1507;-55
2023/07/19 08:38:56;;;;;;;;;;;26.40;43.70;;;;;;1546991;74;1928;-55
2023/07/19 08:41:02;;;;;;;;;;;26.40;43.90;;;;;;1543902;74;1481;-55
2023/07/19 08:43:05;;;;;;;;;;;26.40;44.00;;;;;;1556316;74;1538;-53
2023/07/19 08:45:07;;;;;;;;;;;26.50;43.80;;;;;;1561163;75;1194;-54
2023/07/19 08:47:12;;;;;;;;;;;26.40;43.60;;;;;;1564355;75;1504;-55
2023/07/19 08:49:14;;;;;;;;;;;26.40;43.50;;;;;;1560002;74;1182;-55
2023/07/19 08:51:16;;;;;;;;;;;26.40;43.40;;;;;;1569655;75;1107;-54
2023/07/19 08:53:18;;;;;;;;;;;26.40;43.00;;;;;;1564043;74;1115;-54
2023/07/19 08:55:21;;;;;;;;;;;26.40;42.70;;;;;;1551718;75;1046;-54
2023/07/19 08:57:22;;;;;;;;;;;26.30;42.40;;;;;;1551638;76;1048;-52
2023/07/19 08:59:25;;;;;;;;;;;26.30;42.30;;;;;;1543180;76;1923;-53
2023/07/19 09:01:26;;;;;;;;;;;26.40;42.60;;;;;;1543915;74;1164;-52
2023/07/19 09:03:28;;;;;;;;;;;26.30;42.70;;;;;;1552199;74;1108;-53
2023/07/19 09:05:30;;;;;;;;;;;26.30;42.90;;;;;;1549464;76;1118;-54
2023/07/19 09:07:33;;;;;;;;;;;26.30;42.60;;;;;;1546236;76;1483;-55
2023/07/19 09:09:35;;;;;;;;;;;26.30;42.40;;;;;;1557293;74;1205;-54
2023/07/19 09:11:36;;;;;;;;;;;26.30;42.80;;;;;;1545840;74;1071;-54
2023/07/19 09:13:39;;;;;;;;;;;26.40;42.60;;;;;;1550901;75;1064;-53
2023/07/19 09:15:41;;;;;;;;;;;26.40;42.60;;;;;;1549103;75;1096;-54
2023/07/19 09:17:43;;;;;;;;;;;26.40;42.70;;;;;;1562621;75;1220;-54
2023/07/19 09:19:46;;;;;;;;;;;26.40;42.60;;;;;;1553004;75;1863;-53
2023/07/19 09:21:50;;;;;;;;;;;26.40;42.60;;;;;;1546996;74;1504;-53
2023/07/19 09:23:51;;;;;;;;;;;26.30;42.20;;;;;;1551212;74;1112;-54
2023/07/19 09:25:54;;;;;;;;;;;26.40;42.50;;;;;;1557134;75;1086;-54
2023/07/19 09:27:56;;;;;;;;;;;26.40;42.40;;;;;;1543019;74;1087;-53
2023/07/19 09:29:58;;;;;;;;;;;26.30;42.50;;;;;;1548210;74;1209;-54
2023/07/19 09:32:01;;;;;;;;;;;26.30;42.40;;;;;;1552993;75;1489;-54
2023/07/19 09:34:03;;;;;;;;;;;26.30;42.10;;;;;;1550453;74;1099;-54
2023/07/19 09:36:05;;;;;;;;;;;26.30;42.30;;;;;;1547579;75;1505;-53
2023/07/19 09:38:07;;;;;;;;;;;26.30;42.20;;;;;;1547048;75;1943;-52
2023/07/19 09:40:09;;;;;;;;;;;26.20;42.30;;;;;;1544232;74;1288;-53
2023/07/19 09:42:13;;;;;;;;;;;26.20;42.30;;;;;;1557553;75;1318;-54
2023/07/19 09:44:18;;;;;;;;;;;26.20;42.20;;;;;;1552459;75;1543;-54
2023/07/19 09:46:20;;;;;;;;;;;26.20;41.90;;;;;;1559086;75;1126;-54
2023/07/19 09:48:22;;;;;;;;;;;26.20;42.10;;;;;;1550632;74;796;-55
2023/07/19 09:50:24;;;;;;;;;;;26.20;42.00;;;;;;1543625;75;1558;-54
2023/07/19 09:52:26;;;;;;;;;;;26.30;42.00;;;;;;1558181;75;690;-53
2023/07/19 09:54:27;;;;;;;;;;;26.20;41.90;;;;;;1551126;75;762;-55
2023/07/19 09:56:29;;;;;;;;;;;26.20;42.30;;;;;;1559797;74;700;-54
2023/07/19 09:58:31;;;;;;;;;;;26.30;42.50;;;;;;1562424;75;1941;-54
2023/07/19 10:00:33;;;;;;;;;;;26.30;42.70;;;;;;1544319;75;742;-54
2023/07/19 10:02:35;;;;;;;;;;;26.30;43.00;;;;;;1545266;75;752;-54
2023/07/19 10:04:42;;;;;;;;;;;26.20;43.20;;;;;;1564051;75;1540;-52
2023/07/19 10:06:43;;;;;;;;;;;26.30;43.30;;;;;;1553266;75;837;-55
2023/07/19 10:08:45;;;;;;;;;;;26.30;43.40;;;;;;1554891;75;1102;-54
2023/07/19 10:10:47;;;;;;;;;;;26.30;43.80;;;;;;1549043;75;710;-55
2023/07/19 10:12:50;;;;;;;;;;;26.30;43.60;;;;;;1522018;75;722;-56
2023/07/19 10:15:07;;;;;;;;;;;26.30;43.80;;;;;;1558681;75;1107;-54
2023/07/19 10:17:09;;;;;;;;;;;26.30;43.90;;;;;;1540804;75;1079;-54
2023/07/19 10:19:11;;;;;;;;;;;26.30;43.80;;;;;;1541128;74;1947;-54
2023/07/19 10:21:13;;;;;;;;;;;26.30;43.70;;;;;;1551741;74;1155;-54
2023/07/19 10:23:15;;;;;;;;;;;26.30;43.90;;;;;;1551177;75;1482;-53
2023/07/19 10:25:24;;;;;;;;;;;26.30;43.90;;;;;;1548838;75;1142;-53
2023/07/19 10:27:35;;;;;;;;;;;26.30;44.20;;;;;;1549035;74;1090;-55
2023/07/19 10:29:41;;;;;;;;;;;26.30;44.40;;;;;;1551488;74;1199;-55
2023/07/19 10:31:43;;;;;;;;;;;26.30;44.20;;;;;;1554348;75;1132;-53
2023/07/19 10:33:44;;;;;;;;;;;26.30;43.90;;;;;;1558204;74;1555;-55
2023/07/19 10:35:47;;;;;;;;;;;26.40;43.60;;;;;;1556967;74;1166;-55
2023/07/19 10:37:52;;;;;;;;;;;26.30;43.10;;;;;;1561523;74;1094;-55
2023/07/19 10:39:54;;;;;;;;;;;26.30;42.10;;;;;;1556552;74;1927;-55
2023/07/19 10:41:56;;;;;;;;;;;26.30;42.30;;;;;;1556848;75;1061;-53
2023/07/19 10:43:59;;;;;;;;;;;26.30;42.20;;;;;;1556746;74;1168;-55
2023/07/19 10:46:04;;;;;;;;;;;26.30;42.40;;;;;;1559200;75;1477;-53
2023/07/19 10:48:07;;;;;;;;;;;26.30;42.40;;;;;;1543791;75;1508;-51
2023/07/19 10:50:12;;;;;;;;;;;26.30;42.60;;;;;;1552010;74;1754;-54
2023/07/19 10:52:14;;;;;;;;;;;26.30;42.00;;;;;;1548499;75;1578;-53
2023/07/19 10:54:16;;;;;;;;;;;26.30;42.30;;;;;;1526031;76;1145;-55
2023/07/19 10:56:22;;;;;;;;;;;26.30;41.80;;;;;;1555578;75;1115;-52
2023/07/19 10:58:21;;;;;;;;;;;26.30;41.70;;;;;;1542408;75;1526;-55
2023/07/19 11:00:23;;;;;;;;;;;26.30;41.60;;;;;;1553793;75;1266;-54
2023/07/19 11:02:25;;;;;;;;;;;26.30;41.40;;;;;;1554078;74;1075;-53
2023/07/19 11:04:29;;;;;;;;;;;26.30;41.50;;;;;;1563827;74;1072;-55
2023/07/19 11:06:32;;;;;;;;;;;26.40;41.10;;;;;;1563386;74;1118;-55
2023/07/19 11:08:33;;;;;;;;;;;26.40;41.00;;;;;;1558581;74;1170;-55
2023/07/19 11:10:35;;;;;;;;;;;26.30;40.90;;;;;;1556500;74;1362;-54
2023/07/19 11:12:37;;;;;;;;;;;26.30;40.70;;;;;;1564006;74;1144;-55
2023/07/19 11:14:41;;;;;;;;;;;26.30;41.00;;;;;;1553607;74;1486;-53
2023/07/19 11:16:43;;;;;;;;;;;26.40;40.70;;;;;;1555715;74;1098;-53
2023/07/19 11:18:45;;;;;;;;;;;26.30;40.80;;;;;;1529030;76;1936;-55
2023/07/19 11:20:47;;;;;;;;;;;26.40;41.00;;;;;;1520432;76;1507;-55
2023/07/19 11:22:49;;;;;;;;;;;26.30;41.10;;;;;;1511912;78;1147;-55
2023/07/19 11:24:51;;;;;;;;;;;26.40;40.90;;;;;;1511062;78;1074;-55
2023/07/19 11:26:53;;;;;;;;;;;26.30;40.90;;;;;;1522880;78;1100;-55
2023/07/19 11:29:00;;;;;;;;;;;26.40;40.80;;;;;;1553350;74;1601;-55
2023/07/19 11:30:59;;;;;;;;;;;26.30;40.90;;;;;;1556221;75;1472;-54
2023/07/19 11:33:04;;;;;;;;;;;26.30;41.00;;;;;;1557458;75;1550;-54
2023/07/19 11:35:06;;;;;;;;;;;26.30;40.70;;;;;;1558115;75;1518;-55
2023/07/19 11:37:08;;;;;;;;;;;26.30;40.30;;;;;;1555686;74;1107;-55
2023/07/19 11:39:20;;;;;;;;;;;26.30;40.50;;;;;;1528706;76;1952;-55
2023/07/19 11:41:22;;;;;;;;;;;26.30;40.70;;;;;;1552163;74;1490;-55
2023/07/19 11:43:28;;;;;;;;;;;26.30;40.60;;;;;;1563809;75;1502;-55
2023/07/19 11:45:28;;;;;;;;;;;26.30;40.30;;;;;;1560802;74;1177;-54
2023/07/19 11:47:30;;;;;;;;;;;26.30;40.20;;;;;;1557085;74;1283;-54
2023/07/19 11:49:31;;;;;;;;;;;26.30;41.00;;;;;;1557369;74;1174;-54
2023/07/19 11:51:33;;;;;;;;;;;26.30;40.20;;;;;;1546541;74;1069;-55
2023/07/19 11:53:35;;;;;;;;;;;26.30;40.00;;;;;;1556713;75;1073;-55
2023/07/19 11:55:37;;;;;;;;;;;26.30;39.50;;;;;;1561414;74;1100;-55
2023/07/19 11:57:48;;;;;;;;;;;26.30;39.70;;;;;;1531957;75;1549;-54
2023/07/19 11:59:50;;;;;;;;;;;26.30;39.60;;;;;;1566334;75;1932;-55
2023/07/19 12:01:54;;;;;;;;;;;26.30;40.20;;;;;;1555103;75;1075;-55
2023/07/19 12:04:01;;;;;;;;;;;26.20;40.00;;;;;;1558410;75;2041;-55
2023/07/19 12:05:59;;;;;;;;;;;26.30;40.00;;;;;;1563080;75;1596;-55